sensor_id;sensor_type;location;lat;lon;timestamp;P1;durP1;ratioP1;P2;durP2;ratioP2
28353;SDS011;15603;50.878;8.036;2023-03-01T00:01:17;26.63;;;10.75;;
28353;SDS011;15603;50.878;8.036;2023-03-01T00:03:46;33.42;;;11.13;;
28353;SDS011;15603;50.878;8.036;2023-03-01T00:06:13;27.42;;;11.02;;
28353;SDS011;15603;50.878;8.036;2023-03-01T00:08:40;24.50;;;10.45;;
28353;SDS011;15603;50.878;8.036;2023-03-01T00:13:46;33.00;;;12.23;;
28353;SDS011;15603;50.878;8.036;2023-03-01T00:16:15;29.35;;;9.85;;
28353;SDS011;15603;50.878;8.036;2023-03-01T00:18:45;30.73;;;10.68;;
28353;SDS011;15603;50.878;8.036;2023-03-01T00:21:12;22.95;;;10.63;;
28353;SDS011;15603;50.878;8.036;2023-03-01T00:23:39;28.25;;;10.27;;
28353;SDS011;15603;50.878;8.036;2023-03-01T00:26:11;30.88;;;10.38;;
28353;SDS011;15603;50.878;8.036;2023-03-01T00:28:40;27.17;;;9.57;;
28353;SDS011;15603;50.878;8.036;2023-03-01T00:31:09;25.55;;;9.90;;
28353;SDS011;15603;50.878;8.036;2023-03-01T00:33:38;24.65;;;9.60;;
28353;SDS011;15603;50.878;8.036;2023-03-01T00:36:06;28.90;;;9.98;;
28353;SDS011;15603;50.878;8.036;2023-03-01T00:38:34;25.88;;;10.68;;
28353;SDS011;15603;50.878;8.036;2023-03-01T00:41:06;25.88;;;10.32;;
28353;SDS011;15603;50.878;8.036;2023-03-01T00:43:36;29.17;;;9.98;;
28353;SDS011;15603;50.878;8.036;2023-03-01T00:46:04;25.08;;;10.43;;
28353;SDS011;15603;50.878;8.036;2023-03-01T00:48:34;23.20;;;9.77;;
28353;SDS011;15603;50.878;8.036;2023-03-01T00:51:09;30.10;;;10.23;;
28353;SDS011;15603;50.878;8.036;2023-03-01T00:53:37;25.58;;;9.65;;
28353;SDS011;15603;50.878;8.036;2023-03-01T00:56:06;24.58;;;8.88;;
28353;SDS011;15603;50.878;8.036;2023-03-01T00:58:34;18.02;;;7.80;;
28353;SDS011;15603;50.878;8.036;2023-03-01T01:01:07;18.58;;;8.30;;
28353;SDS011;15603;50.878;8.036;2023-03-01T01:03:44;16.73;;;7.03;;
28353;SDS011;15603;50.878;8.036;2023-03-01T01:09:13;17.08;;;7.97;;
28353;SDS011;15603;50.878;8.036;2023-03-01T01:11:45;20.23;;;8.68;;
28353;SDS011;15603;50.878;8.036;2023-03-01T01:14:14;26.17;;;10.38;;
28353;SDS011;15603;50.878;8.036;2023-03-01T01:16:41;23.63;;;9.27;;
28353;SDS011;15603;50.878;8.036;2023-03-01T01:19:09;31.20;;;10.50;;
28353;SDS011;15603;50.878;8.036;2023-03-01T01:21:37;20.00;;;9.35;;
28353;SDS011;15603;50.878;8.036;2023-03-01T01:24:05;25.33;;;9.32;;
28353;SDS011;15603;50.878;8.036;2023-03-01T01:26:33;27.70;;;9.70;;
28353;SDS011;15603;50.878;8.036;2023-03-01T01:29:02;23.90;;;9.02;;
28353;SDS011;15603;50.878;8.036;2023-03-01T01:31:31;21.50;;;8.70;;
28353;SDS011;15603;50.878;8.036;2023-03-01T01:34:00;20.52;;;8.82;;
28353;SDS011;15603;50.878;8.036;2023-03-01T01:36:29;20.48;;;9.02;;
28353;SDS011;15603;50.878;8.036;2023-03-01T01:38:56;25.77;;;8.98;;
28353;SDS011;15603;50.878;8.036;2023-03-01T01:41:24;27.80;;;9.45;;
28353;SDS011;15603;50.878;8.036;2023-03-01T01:46:55;20.08;;;9.55;;
28353;SDS011;15603;50.878;8.036;2023-03-01T01:49:33;22.65;;;10.27;;
28353;SDS011;15603;50.878;8.036;2023-03-01T01:54:42;25.13;;;9.65;;
28353;SDS011;15603;50.878;8.036;2023-03-01T01:57:33;21.58;;;9.57;;
28353;SDS011;15603;50.878;8.036;2023-03-01T02:00:10;20.98;;;9.23;;
28353;SDS011;15603;50.878;8.036;2023-03-01T02:02:40;25.38;;;10.18;;
28353;SDS011;15603;50.878;8.036;2023-03-01T02:07:51;29.60;;;10.35;;
28353;SDS011;15603;50.878;8.036;2023-03-01T02:10:19;24.45;;;10.23;;
28353;SDS011;15603;50.878;8.036;2023-03-01T02:12:49;28.38;;;10.43;;
28353;SDS011;15603;50.878;8.036;2023-03-01T02:15:17;28.08;;;9.55;;
28353;SDS011;15603;50.878;8.036;2023-03-01T02:17:44;26.85;;;11.13;;
28353;SDS011;15603;50.878;8.036;2023-03-01T02:20:17;23.15;;;10.25;;
28353;SDS011;15603;50.878;8.036;2023-03-01T02:22:50;22.85;;;9.73;;
28353;SDS011;15603;50.878;8.036;2023-03-01T02:30:44;19.05;;;10.20;;
28353;SDS011;15603;50.878;8.036;2023-03-01T02:33:32;20.30;;;8.88;;
28353;SDS011;15603;50.878;8.036;2023-03-01T02:36:07;19.58;;;8.88;;
28353;SDS011;15603;50.878;8.036;2023-03-01T02:38:40;22.88;;;8.05;;
28353;SDS011;15603;50.878;8.036;2023-03-01T02:41:09;22.30;;;9.25;;
28353;SDS011;15603;50.878;8.036;2023-03-01T02:43:39;19.80;;;8.60;;
28353;SDS011;15603;50.878;8.036;2023-03-01T02:46:08;19.90;;;8.63;;
28353;SDS011;15603;50.878;8.036;2023-03-01T02:48:43;22.20;;;9.23;;
28353;SDS011;15603;50.878;8.036;2023-03-01T02:54:12;23.55;;;10.48;;
28353;SDS011;15603;50.878;8.036;2023-03-01T02:56:59;18.38;;;8.65;;
28353;SDS011;15603;50.878;8.036;2023-03-01T03:03:20;24.13;;;9.40;;
28353;SDS011;15603;50.878;8.036;2023-03-01T03:05:48;25.63;;;9.52;;
28353;SDS011;15603;50.878;8.036;2023-03-01T03:08:15;22.42;;;9.07;;
28353;SDS011;15603;50.878;8.036;2023-03-01T03:10:50;22.63;;;8.90;;
28353;SDS011;15603;50.878;8.036;2023-03-01T03:13:18;21.33;;;8.82;;
28353;SDS011;15603;50.878;8.036;2023-03-01T03:15:45;22.08;;;8.15;;
28353;SDS011;15603;50.878;8.036;2023-03-01T03:18:14;21.65;;;8.93;;
28353;SDS011;15603;50.878;8.036;2023-03-01T03:20:42;21.50;;;8.75;;
28353;SDS011;15603;50.878;8.036;2023-03-01T03:23:10;25.90;;;8.25;;
28353;SDS011;15603;50.878;8.036;2023-03-01T03:25:37;18.33;;;8.82;;
28353;SDS011;15603;50.878;8.036;2023-03-01T03:28:05;20.00;;;8.45;;
28353;SDS011;15603;50.878;8.036;2023-03-01T03:30:37;17.73;;;8.80;;
28353;SDS011;15603;50.878;8.036;2023-03-01T03:33:06;21.13;;;8.88;;
28353;SDS011;15603;50.878;8.036;2023-03-01T03:35:39;22.60;;;9.32;;
28353;SDS011;15603;50.878;8.036;2023-03-01T03:38:09;26.75;;;8.77;;
28353;SDS011;15603;50.878;8.036;2023-03-01T03:44:11;21.27;;;8.57;;
28353;SDS011;15603;50.878;8.036;2023-03-01T03:46:39;21.17;;;9.40;;
28353;SDS011;15603;50.878;8.036;2023-03-01T03:49:05;25.52;;;10.00;;
28353;SDS011;15603;50.878;8.036;2023-03-01T03:51:33;17.00;;;8.55;;
28353;SDS011;15603;50.878;8.036;2023-03-01T03:54:00;22.05;;;8.50;;
28353;SDS011;15603;50.878;8.036;2023-03-01T03:56:27;27.02;;;9.63;;
28353;SDS011;15603;50.878;8.036;2023-03-01T03:58:54;23.23;;;10.25;;
28353;SDS011;15603;50.878;8.036;2023-03-01T04:01:21;27.83;;;10.32;;
28353;SDS011;15603;50.878;8.036;2023-03-01T04:03:49;20.75;;;9.82;;
28353;SDS011;15603;50.878;8.036;2023-03-01T04:06:21;22.27;;;9.13;;
28353;SDS011;15603;50.878;8.036;2023-03-01T04:08:48;22.48;;;9.00;;
28353;SDS011;15603;50.878;8.036;2023-03-01T04:11:24;22.90;;;9.52;;
28353;SDS011;15603;50.878;8.036;2023-03-01T04:13:55;21.45;;;9.57;;
28353;SDS011;15603;50.878;8.036;2023-03-01T04:16:24;21.58;;;9.10;;
28353;SDS011;15603;50.878;8.036;2023-03-01T04:18:51;24.40;;;9.77;;
28353;SDS011;15603;50.878;8.036;2023-03-01T04:21:20;18.98;;;10.02;;
28353;SDS011;15603;50.878;8.036;2023-03-01T04:23:47;27.75;;;10.43;;
28353;SDS011;15603;50.878;8.036;2023-03-01T04:26:15;20.25;;;9.20;;
28353;SDS011;15603;50.878;8.036;2023-03-01T04:28:42;23.45;;;9.88;;
28353;SDS011;15603;50.878;8.036;2023-03-01T04:31:13;23.80;;;10.90;;
28353;SDS011;15603;50.878;8.036;2023-03-01T04:33:45;22.83;;;10.07;;
28353;SDS011;15603;50.878;8.036;2023-03-01T04:36:14;27.00;;;11.40;;
28353;SDS011;15603;50.878;8.036;2023-03-01T04:38:43;43.67;;;11.20;;
28353;SDS011;15603;50.878;8.036;2023-03-01T04:41:15;47.50;;;13.20;;
28353;SDS011;15603;50.878;8.036;2023-03-01T04:43:44;32.33;;;11.27;;
28353;SDS011;15603;50.878;8.036;2023-03-01T04:46:13;36.25;;;11.70;;
28353;SDS011;15603;50.878;8.036;2023-03-01T04:48:42;181.75;;;31.15;;
28353;SDS011;15603;50.878;8.036;2023-03-01T04:51:11;123.80;;;25.23;;
28353;SDS011;15603;50.878;8.036;2023-03-01T04:53:41;139.48;;;25.80;;
28353;SDS011;15603;50.878;8.036;2023-03-01T04:56:09;120.65;;;24.70;;
28353;SDS011;15603;50.878;8.036;2023-03-01T04:58:37;114.38;;;21.65;;
28353;SDS011;15603;50.878;8.036;2023-03-01T05:08:33;144.85;;;27.17;;
28353;SDS011;15603;50.878;8.036;2023-03-01T05:11:03;160.50;;;27.95;;
28353;SDS011;15603;50.878;8.036;2023-03-01T05:13:31;115.60;;;24.80;;
28353;SDS011;15603;50.878;8.036;2023-03-01T05:15:59;119.28;;;24.10;;
28353;SDS011;15603;50.878;8.036;2023-03-01T05:22:18;106.18;;;21.17;;
28353;SDS011;15603;50.878;8.036;2023-03-01T05:24:45;83.35;;;17.98;;
28353;SDS011;15603;50.878;8.036;2023-03-01T05:27:13;92.55;;;19.00;;
28353;SDS011;15603;50.878;8.036;2023-03-01T05:29:41;89.05;;;18.98;;
28353;SDS011;15603;50.878;8.036;2023-03-01T05:32:08;69.80;;;19.40;;
28353;SDS011;15603;50.878;8.036;2023-03-01T05:34:36;79.47;;;18.30;;
28353;SDS011;15603;50.878;8.036;2023-03-01T05:37:03;67.00;;;16.95;;
28353;SDS011;15603;50.878;8.036;2023-03-01T05:39:31;47.63;;;13.43;;
28353;SDS011;15603;50.878;8.036;2023-03-01T05:41:59;69.03;;;17.10;;
28353;SDS011;15603;50.878;8.036;2023-03-01T05:44:28;66.15;;;17.08;;
28353;SDS011;15603;50.878;8.036;2023-03-01T05:46:55;75.45;;;16.63;;
28353;SDS011;15603;50.878;8.036;2023-03-01T05:49:23;63.88;;;16.92;;
28353;SDS011;15603;50.878;8.036;2023-03-01T05:51:52;50.97;;;14.95;;
28353;SDS011;15603;50.878;8.036;2023-03-01T05:54:20;56.47;;;15.45;;
28353;SDS011;15603;50.878;8.036;2023-03-01T05:56:48;52.50;;;14.65;;
28353;SDS011;15603;50.878;8.036;2023-03-01T05:59:15;62.13;;;14.82;;
28353;SDS011;15603;50.878;8.036;2023-03-01T06:01:43;53.03;;;14.55;;
28353;SDS011;15603;50.878;8.036;2023-03-01T06:04:10;62.72;;;14.52;;
28353;SDS011;15603;50.878;8.036;2023-03-01T06:10:43;49.75;;;14.43;;
28353;SDS011;15603;50.878;8.036;2023-03-01T06:13:10;63.53;;;14.40;;
28353;SDS011;15603;50.878;8.036;2023-03-01T06:15:37;49.67;;;14.02;;
28353;SDS011;15603;50.878;8.036;2023-03-01T06:18:05;51.53;;;15.02;;
28353;SDS011;15603;50.878;8.036;2023-03-01T06:20:32;56.80;;;15.18;;
28353;SDS011;15603;50.878;8.036;2023-03-01T06:22:59;50.22;;;14.45;;
28353;SDS011;15603;50.878;8.036;2023-03-01T06:25:26;49.17;;;15.23;;
28353;SDS011;15603;50.878;8.036;2023-03-01T06:27:54;37.63;;;13.77;;
28353;SDS011;15603;50.878;8.036;2023-03-01T06:30:22;38.65;;;12.73;;
28353;SDS011;15603;50.878;8.036;2023-03-01T06:32:51;46.50;;;15.55;;
28353;SDS011;15603;50.878;8.036;2023-03-01T06:35:18;40.67;;;14.80;;
28353;SDS011;15603;50.878;8.036;2023-03-01T06:37:47;35.75;;;12.52;;
28353;SDS011;15603;50.878;8.036;2023-03-01T06:40:15;31.95;;;13.43;;
28353;SDS011;15603;50.878;8.036;2023-03-01T06:42:43;39.40;;;13.93;;
28353;SDS011;15603;50.878;8.036;2023-03-01T06:45:14;37.47;;;13.73;;
28353;SDS011;15603;50.878;8.036;2023-03-01T06:47:41;36.85;;;14.45;;
28353;SDS011;15603;50.878;8.036;2023-03-01T06:50:09;36.80;;;13.98;;
28353;SDS011;15603;50.878;8.036;2023-03-01T06:52:37;38.33;;;13.82;;
28353;SDS011;15603;50.878;8.036;2023-03-01T06:55:04;52.50;;;14.23;;
28353;SDS011;15603;50.878;8.036;2023-03-01T06:57:32;42.60;;;15.70;;
28353;SDS011;15603;50.878;8.036;2023-03-01T06:59:59;44.08;;;13.77;;
28353;SDS011;15603;50.878;8.036;2023-03-01T07:02:26;36.78;;;14.18;;
28353;SDS011;15603;50.878;8.036;2023-03-01T07:04:53;34.95;;;13.68;;
28353;SDS011;15603;50.878;8.036;2023-03-01T07:07:20;37.20;;;13.20;;
28353;SDS011;15603;50.878;8.036;2023-03-01T07:09:48;39.33;;;13.45;;
28353;SDS011;15603;50.878;8.036;2023-03-01T07:12:15;31.02;;;12.55;;
28353;SDS011;15603;50.878;8.036;2023-03-01T07:14:43;34.42;;;13.40;;
28353;SDS011;15603;50.878;8.036;2023-03-01T07:17:10;38.97;;;13.98;;
28353;SDS011;15603;50.878;8.036;2023-03-01T07:19:37;31.00;;;12.95;;
28353;SDS011;15603;50.878;8.036;2023-03-01T07:22:05;31.55;;;10.80;;
28353;SDS011;15603;50.878;8.036;2023-03-01T07:24:34;33.95;;;13.57;;
28353;SDS011;15603;50.878;8.036;2023-03-01T07:27:01;36.65;;;13.10;;
28353;SDS011;15603;50.878;8.036;2023-03-01T07:29:28;44.30;;;13.70;;
28353;SDS011;15603;50.878;8.036;2023-03-01T07:31:56;33.80;;;11.93;;
28353;SDS011;15603;50.878;8.036;2023-03-01T07:34:23;37.38;;;12.35;;
28353;SDS011;15603;50.878;8.036;2023-03-01T07:36:50;29.27;;;12.00;;
28353;SDS011;15603;50.878;8.036;2023-03-01T07:43:04;30.45;;;12.15;;
28353;SDS011;15603;50.878;8.036;2023-03-01T07:45:31;36.80;;;13.25;;
28353;SDS011;15603;50.878;8.036;2023-03-01T07:47:58;37.70;;;14.15;;
28353;SDS011;15603;50.878;8.036;2023-03-01T07:50:26;29.92;;;11.77;;
28353;SDS011;15603;50.878;8.036;2023-03-01T07:52:53;25.45;;;11.45;;
28353;SDS011;15603;50.878;8.036;2023-03-01T07:59:26;23.77;;;9.15;;
28353;SDS011;15603;50.878;8.036;2023-03-01T08:01:56;26.08;;;9.43;;
28353;SDS011;15603;50.878;8.036;2023-03-01T08:04:23;20.92;;;8.07;;
28353;SDS011;15603;50.878;8.036;2023-03-01T08:06:53;22.90;;;7.93;;
28353;SDS011;15603;50.878;8.036;2023-03-01T08:09:22;21.60;;;6.93;;
28353;SDS011;15603;50.878;8.036;2023-03-01T08:15:06;21.25;;;5.93;;
28353;SDS011;15603;50.878;8.036;2023-03-01T08:31:34;17.02;;;7.15;;
28353;SDS011;15603;50.878;8.036;2023-03-01T08:37:56;18.20;;;6.70;;
28353;SDS011;15603;50.878;8.036;2023-03-01T08:47:45;17.00;;;5.72;;
28353;SDS011;15603;50.878;8.036;2023-03-01T08:50:12;17.60;;;6.38;;
28353;SDS011;15603;50.878;8.036;2023-03-01T08:52:39;15.05;;;5.78;;
28353;SDS011;15603;50.878;8.036;2023-03-01T08:55:06;25.70;;;6.63;;
28353;SDS011;15603;50.878;8.036;2023-03-01T08:57:34;18.13;;;6.25;;
28353;SDS011;15603;50.878;8.036;2023-03-01T09:00:01;14.88;;;6.10;;
28353;SDS011;15603;50.878;8.036;2023-03-01T09:02:30;15.30;;;6.22;;
28353;SDS011;15603;50.878;8.036;2023-03-01T09:04:57;17.88;;;6.20;;
28353;SDS011;15603;50.878;8.036;2023-03-01T09:07:24;12.27;;;5.70;;
28353;SDS011;15603;50.878;8.036;2023-03-01T09:09:54;15.85;;;6.60;;
28353;SDS011;15603;50.878;8.036;2023-03-01T09:12:22;14.23;;;5.40;;
28353;SDS011;15603;50.878;8.036;2023-03-01T09:14:49;17.95;;;6.13;;
28353;SDS011;15603;50.878;8.036;2023-03-01T09:17:22;17.80;;;5.55;;
28353;SDS011;15603;50.878;8.036;2023-03-01T09:19:49;9.75;;;4.40;;
28353;SDS011;15603;50.878;8.036;2023-03-01T09:22:20;20.33;;;5.18;;
28353;SDS011;15603;50.878;8.036;2023-03-01T09:25:29;15.15;;;5.10;;
28353;SDS011;15603;50.878;8.036;2023-03-01T09:27:56;13.02;;;4.75;;
28353;SDS011;15603;50.878;8.036;2023-03-01T09:30:23;16.38;;;6.07;;
28353;SDS011;15603;50.878;8.036;2023-03-01T09:32:51;13.35;;;5.28;;
28353;SDS011;15603;50.878;8.036;2023-03-01T09:35:18;13.23;;;5.47;;
28353;SDS011;15603;50.878;8.036;2023-03-01T09:37:46;14.93;;;4.65;;
28353;SDS011;15603;50.878;8.036;2023-03-01T09:40:18;17.88;;;5.88;;
28353;SDS011;15603;50.878;8.036;2023-03-01T09:45:58;15.05;;;5.68;;
28353;SDS011;15603;50.878;8.036;2023-03-01T09:52:47;16.00;;;5.57;;
28353;SDS011;15603;50.878;8.036;2023-03-01T09:55:37;11.82;;;4.25;;
28353;SDS011;15603;50.878;8.036;2023-03-01T09:58:31;14.65;;;4.93;;
28353;SDS011;15603;50.878;8.036;2023-03-01T10:00:59;10.50;;;4.35;;
28353;SDS011;15603;50.878;8.036;2023-03-01T10:03:39;18.65;;;5.22;;
28353;SDS011;15603;50.878;8.036;2023-03-01T10:14:23;15.43;;;4.53;;
28353;SDS011;15603;50.878;8.036;2023-03-01T10:16:57;11.45;;;5.03;;
28353;SDS011;15603;50.878;8.036;2023-03-01T10:19:33;15.63;;;5.38;;
28353;SDS011;15603;50.878;8.036;2023-03-01T10:30:36;10.32;;;4.43;;
28353;SDS011;15603;50.878;8.036;2023-03-01T10:40:25;11.15;;;4.35;;
28353;SDS011;15603;50.878;8.036;2023-03-01T10:42:52;10.80;;;4.43;;
28353;SDS011;15603;50.878;8.036;2023-03-01T10:45:29;14.05;;;5.07;;
28353;SDS011;15603;50.878;8.036;2023-03-01T10:48:09;17.83;;;4.13;;
28353;SDS011;15603;50.878;8.036;2023-03-01T10:50:39;21.35;;;5.15;;
28353;SDS011;15603;50.878;8.036;2023-03-01T10:53:31;21.17;;;4.57;;
28353;SDS011;15603;50.878;8.036;2023-03-01T10:56:12;17.80;;;3.95;;
28353;SDS011;15603;50.878;8.036;2023-03-01T11:01:28;13.70;;;4.15;;
28353;SDS011;15603;50.878;8.036;2023-03-01T11:06:33;16.70;;;4.82;;
28353;SDS011;15603;50.878;8.036;2023-03-01T11:11:52;17.90;;;5.22;;
28353;SDS011;15603;50.878;8.036;2023-03-01T11:14:24;8.73;;;3.47;;
28353;SDS011;15603;50.878;8.036;2023-03-01T11:16:58;13.70;;;4.22;;
28353;SDS011;15603;50.878;8.036;2023-03-01T11:19:27;10.73;;;4.80;;
28353;SDS011;15603;50.878;8.036;2023-03-01T11:27:33;11.25;;;4.07;;
28353;SDS011;15603;50.878;8.036;2023-03-01T11:30:18;9.73;;;4.40;;
28353;SDS011;15603;50.878;8.036;2023-03-01T11:35:58;19.42;;;4.47;;
28353;SDS011;15603;50.878;8.036;2023-03-01T11:38:30;13.15;;;3.90;;
28353;SDS011;15603;50.878;8.036;2023-03-01T11:41:03;12.13;;;3.53;;
28353;SDS011;15603;50.878;8.036;2023-03-01T11:44:01;10.38;;;4.15;;
28353;SDS011;15603;50.878;8.036;2023-03-01T11:46:51;13.73;;;3.80;;
28353;SDS011;15603;50.878;8.036;2023-03-01T11:49:34;8.90;;;3.38;;
28353;SDS011;15603;50.878;8.036;2023-03-01T11:55:42;17.92;;;3.55;;
28353;SDS011;15603;50.878;8.036;2023-03-01T11:58:24;11.27;;;4.00;;
28353;SDS011;15603;50.878;8.036;2023-03-01T12:04:16;10.25;;;3.60;;
28353;SDS011;15603;50.878;8.036;2023-03-01T12:07:14;11.13;;;4.55;;
28353;SDS011;15603;50.878;8.036;2023-03-01T12:15:37;8.15;;;3.83;;
28353;SDS011;15603;50.878;8.036;2023-03-01T12:21:13;8.35;;;3.38;;
28353;SDS011;15603;50.878;8.036;2023-03-01T12:23:50;8.70;;;4.05;;
28353;SDS011;15603;50.878;8.036;2023-03-01T12:26:41;11.25;;;3.53;;
28353;SDS011;15603;50.878;8.036;2023-03-01T12:37:14;6.20;;;2.90;;
28353;SDS011;15603;50.878;8.036;2023-03-01T12:40:33;15.40;;;3.33;;
28353;SDS011;15603;50.878;8.036;2023-03-01T12:51:37;22.88;;;3.35;;
28353;SDS011;15603;50.878;8.036;2023-03-01T12:54:16;8.45;;;3.28;;
28353;SDS011;15603;50.878;8.036;2023-03-01T12:56:51;11.95;;;3.13;;
28353;SDS011;15603;50.878;8.036;2023-03-01T13:02:09;9.27;;;2.92;;
28353;SDS011;15603;50.878;8.036;2023-03-01T13:04:53;11.80;;;3.03;;
28353;SDS011;15603;50.878;8.036;2023-03-01T13:17:49;8.00;;;3.15;;
28353;SDS011;15603;50.878;8.036;2023-03-01T13:20:20;9.63;;;3.22;;
28353;SDS011;15603;50.878;8.036;2023-03-01T13:25:28;5.32;;;2.70;;
28353;SDS011;15603;50.878;8.036;2023-03-01T13:31:02;4.20;;;2.20;;
28353;SDS011;15603;50.878;8.036;2023-03-01T13:36:00;9.57;;;3.53;;
28353;SDS011;15603;50.878;8.036;2023-03-01T13:38:39;7.18;;;2.80;;
28353;SDS011;15603;50.878;8.036;2023-03-01T13:44:20;11.48;;;3.70;;
28353;SDS011;15603;50.878;8.036;2023-03-01T13:46:56;11.23;;;3.83;;
28353;SDS011;15603;50.878;8.036;2023-03-01T13:49:27;11.30;;;3.72;;
28353;SDS011;15603;50.878;8.036;2023-03-01T13:55:05;10.18;;;3.42;;
28353;SDS011;15603;50.878;8.036;2023-03-01T13:57:46;7.70;;;3.70;;
28353;SDS011;15603;50.878;8.036;2023-03-01T14:03:01;8.48;;;3.58;;
28353;SDS011;15603;50.878;8.036;2023-03-01T14:05:35;7.65;;;3.13;;
28353;SDS011;15603;50.878;8.036;2023-03-01T14:08:03;7.90;;;2.97;;
28353;SDS011;15603;50.878;8.036;2023-03-01T14:10:41;8.63;;;3.38;;
28353;SDS011;15603;50.878;8.036;2023-03-01T14:13:25;9.05;;;3.70;;
28353;SDS011;15603;50.878;8.036;2023-03-01T14:16:20;9.13;;;3.70;;
28353;SDS011;15603;50.878;8.036;2023-03-01T14:22:00;9.65;;;3.78;;
28353;SDS011;15603;50.878;8.036;2023-03-01T14:24:38;14.70;;;4.13;;
28353;SDS011;15603;50.878;8.036;2023-03-01T14:27:11;9.63;;;4.00;;
28353;SDS011;15603;50.878;8.036;2023-03-01T14:29:40;10.18;;;3.80;;
28353;SDS011;15603;50.878;8.036;2023-03-01T14:32:12;11.07;;;3.80;;
28353;SDS011;15603;50.878;8.036;2023-03-01T14:34:47;9.77;;;3.75;;
28353;SDS011;15603;50.878;8.036;2023-03-01T14:39:52;8.48;;;3.95;;
28353;SDS011;15603;50.878;8.036;2023-03-01T14:42:20;9.00;;;3.92;;
28353;SDS011;15603;50.878;8.036;2023-03-01T14:44:51;12.20;;;4.10;;
28353;SDS011;15603;50.878;8.036;2023-03-01T14:47:36;13.00;;;4.13;;
28353;SDS011;15603;50.878;8.036;2023-03-01T14:50:48;12.15;;;4.00;;
28353;SDS011;15603;50.878;8.036;2023-03-01T14:52:58;9.45;;;3.88;;
28353;SDS011;15603;50.878;8.036;2023-03-01T14:55:32;8.40;;;3.78;;
28353;SDS011;15603;50.878;8.036;2023-03-01T14:58:05;7.93;;;3.70;;
28353;SDS011;15603;50.878;8.036;2023-03-01T15:00:38;12.98;;;4.15;;
28353;SDS011;15603;50.878;8.036;2023-03-01T15:06:20;11.20;;;4.22;;
28353;SDS011;15603;50.878;8.036;2023-03-01T15:13:54;11.55;;;3.85;;
28353;SDS011;15603;50.878;8.036;2023-03-01T15:16:31;13.32;;;4.25;;
28353;SDS011;15603;50.878;8.036;2023-03-01T15:19:01;11.65;;;4.60;;
28353;SDS011;15603;50.878;8.036;2023-03-01T15:21:33;10.95;;;3.22;;
28353;SDS011;15603;50.878;8.036;2023-03-01T15:24:07;9.57;;;3.83;;
28353;SDS011;15603;50.878;8.036;2023-03-01T15:27:00;13.63;;;4.63;;
28353;SDS011;15603;50.878;8.036;2023-03-01T15:29:33;13.88;;;4.32;;
28353;SDS011;15603;50.878;8.036;2023-03-01T15:34:52;12.65;;;4.45;;
28353;SDS011;15603;50.878;8.036;2023-03-01T15:37:40;9.82;;;4.20;;
28353;SDS011;15603;50.878;8.036;2023-03-01T15:42:44;8.15;;;3.78;;
28353;SDS011;15603;50.878;8.036;2023-03-01T15:47:52;11.07;;;3.95;;
28353;SDS011;15603;50.878;8.036;2023-03-01T15:50:34;13.52;;;4.55;;
28353;SDS011;15603;50.878;8.036;2023-03-01T15:53:05;8.82;;;4.22;;
28353;SDS011;15603;50.878;8.036;2023-03-01T15:55:34;10.75;;;4.05;;
28353;SDS011;15603;50.878;8.036;2023-03-01T16:00:42;8.23;;;3.65;;
28353;SDS011;15603;50.878;8.036;2023-03-01T16:03:25;20.35;;;4.43;;
28353;SDS011;15603;50.878;8.036;2023-03-01T16:05:53;12.85;;;4.32;;
28353;SDS011;15603;50.878;8.036;2023-03-01T16:08:20;11.90;;;5.10;;
28353;SDS011;15603;50.878;8.036;2023-03-01T16:10:48;9.10;;;4.28;;
28353;SDS011;15603;50.878;8.036;2023-03-01T16:13:17;11.38;;;4.38;;
28353;SDS011;15603;50.878;8.036;2023-03-01T16:15:44;10.48;;;4.30;;
28353;SDS011;15603;50.878;8.036;2023-03-01T16:18:11;13.10;;;4.40;;
28353;SDS011;15603;50.878;8.036;2023-03-01T16:20:39;13.45;;;4.15;;
28353;SDS011;15603;50.878;8.036;2023-03-01T16:23:07;9.20;;;3.75;;
28353;SDS011;15603;50.878;8.036;2023-03-01T16:25:37;13.70;;;3.78;;
28353;SDS011;15603;50.878;8.036;2023-03-01T16:28:04;10.57;;;4.13;;
28353;SDS011;15603;50.878;8.036;2023-03-01T16:30:36;9.38;;;4.25;;
28353;SDS011;15603;50.878;8.036;2023-03-01T16:33:06;11.02;;;3.72;;
28353;SDS011;15603;50.878;8.036;2023-03-01T16:35:52;11.73;;;4.10;;
28353;SDS011;15603;50.878;8.036;2023-03-01T16:38:20;15.07;;;4.35;;
28353;SDS011;15603;50.878;8.036;2023-03-01T16:40:47;9.00;;;3.70;;
28353;SDS011;15603;50.878;8.036;2023-03-01T16:43:15;9.65;;;4.47;;
28353;SDS011;15603;50.878;8.036;2023-03-01T16:45:43;10.90;;;4.65;;
28353;SDS011;15603;50.878;8.036;2023-03-01T16:48:12;10.63;;;4.55;;
28353;SDS011;15603;50.878;8.036;2023-03-01T16:54:09;12.05;;;4.30;;
28353;SDS011;15603;50.878;8.036;2023-03-01T16:56:37;13.45;;;5.03;;
28353;SDS011;15603;50.878;8.036;2023-03-01T16:59:06;9.40;;;3.80;;
28353;SDS011;15603;50.878;8.036;2023-03-01T17:01:33;16.13;;;4.78;;
28353;SDS011;15603;50.878;8.036;2023-03-01T17:04:06;11.90;;;4.80;;
28353;SDS011;15603;50.878;8.036;2023-03-01T17:06:36;8.25;;;3.80;;
28353;SDS011;15603;50.878;8.036;2023-03-01T17:09:04;11.10;;;4.80;;
28353;SDS011;15603;50.878;8.036;2023-03-01T17:11:31;13.20;;;5.28;;
28353;SDS011;15603;50.878;8.036;2023-03-01T17:13:58;7.60;;;3.90;;
28353;SDS011;15603;50.878;8.036;2023-03-01T17:16:25;13.13;;;4.15;;
28353;SDS011;15603;50.878;8.036;2023-03-01T17:18:53;15.98;;;5.05;;
28353;SDS011;15603;50.878;8.036;2023-03-01T17:21:20;15.57;;;4.55;;
28353;SDS011;15603;50.878;8.036;2023-03-01T17:23:48;10.40;;;3.53;;
28353;SDS011;15603;50.878;8.036;2023-03-01T17:26:16;11.57;;;4.63;;
28353;SDS011;15603;50.878;8.036;2023-03-01T17:28:43;9.75;;;4.45;;
28353;SDS011;15603;50.878;8.036;2023-03-01T17:31:10;10.68;;;4.75;;
28353;SDS011;15603;50.878;8.036;2023-03-01T17:33:37;17.38;;;4.70;;
28353;SDS011;15603;50.878;8.036;2023-03-01T17:36:04;13.05;;;5.13;;
28353;SDS011;15603;50.878;8.036;2023-03-01T17:38:31;17.08;;;4.55;;
28353;SDS011;15603;50.878;8.036;2023-03-01T17:40:59;16.10;;;6.28;;
28353;SDS011;15603;50.878;8.036;2023-03-01T17:43:26;14.77;;;5.68;;
28353;SDS011;15603;50.878;8.036;2023-03-01T17:45:55;16.55;;;6.28;;
28353;SDS011;15603;50.878;8.036;2023-03-01T17:52:35;17.23;;;5.88;;
28353;SDS011;15603;50.878;8.036;2023-03-01T17:55:03;11.95;;;5.60;;
28353;SDS011;15603;50.878;8.036;2023-03-01T17:57:31;12.60;;;4.57;;
28353;SDS011;15603;50.878;8.036;2023-03-01T17:59:59;10.27;;;4.65;;
28353;SDS011;15603;50.878;8.036;2023-03-01T18:02:37;12.07;;;5.18;;
28353;SDS011;15603;50.878;8.036;2023-03-01T18:05:04;17.85;;;6.22;;
28353;SDS011;15603;50.878;8.036;2023-03-01T18:07:31;14.60;;;5.75;;
28353;SDS011;15603;50.878;8.036;2023-03-01T18:09:58;24.27;;;5.75;;
28353;SDS011;15603;50.878;8.036;2023-03-01T18:12:25;14.13;;;6.18;;
28353;SDS011;15603;50.878;8.036;2023-03-01T18:14:52;17.30;;;6.75;;
28353;SDS011;15603;50.878;8.036;2023-03-01T18:17:20;20.77;;;7.00;;
28353;SDS011;15603;50.878;8.036;2023-03-01T18:19:49;11.98;;;5.55;;
28353;SDS011;15603;50.878;8.036;2023-03-01T18:22:17;13.48;;;5.53;;
28353;SDS011;15603;50.878;8.036;2023-03-01T18:24:44;15.77;;;5.55;;
28353;SDS011;15603;50.878;8.036;2023-03-01T18:27:11;16.30;;;6.18;;
28353;SDS011;15603;50.878;8.036;2023-03-01T18:29:38;12.88;;;5.07;;
28353;SDS011;15603;50.878;8.036;2023-03-01T18:32:06;11.40;;;4.95;;
28353;SDS011;15603;50.878;8.036;2023-03-01T18:34:33;11.82;;;4.50;;
28353;SDS011;15603;50.878;8.036;2023-03-01T18:37:01;15.00;;;4.72;;